createdAt,value
2022-08-22T00:01:47.476Z,2.80
2022-08-22T00:03:10.196Z,5.13
2022-08-22T00:04:23.720Z,2.57
2022-08-22T00:06:58.309Z,2.50
2022-08-22T00:09:37.076Z,2.53
2022-08-22T00:12:18.837Z,2.53
2022-08-22T00:14:52.625Z,3.08
2022-08-22T00:17:41.325Z,3.38
2022-08-22T00:20:15.013Z,2.90
2022-08-22T00:25:43.621Z,2.50
2022-08-22T00:28:15.741Z,3.20
2022-08-22T00:30:54.414Z,3.17
2022-08-22T00:33:32.719Z,2.80
2022-08-22T00:36:18.017Z,2.92
2022-08-22T00:38:54.358Z,2.83
2022-08-22T00:41:56.509Z,2.85
2022-08-22T00:44:58.528Z,3.03
2022-08-22T00:47:54.030Z,3.00
2022-08-22T00:50:59.865Z,2.97
2022-08-22T00:53:44.346Z,3.30
2022-08-22T00:56:40.710Z,2.90
2022-08-22T00:59:28.581Z,2.83
2022-08-22T01:02:05.605Z,2.80
2022-08-22T01:04:51.650Z,3.42
2022-08-22T01:07:38.158Z,2.92
2022-08-22T01:10:24.430Z,2.78
2022-08-22T01:13:16.460Z,3.25
2022-08-22T01:15:47.957Z,2.92
2022-08-22T01:18:44.229Z,3.00
2022-08-22T01:21:44.208Z,2.90
2022-08-22T01:25:12.517Z,2.88
2022-08-22T01:28:10.396Z,2.70
2022-08-22T01:31:00.549Z,2.80
2022-08-22T01:34:19.145Z,2.85
2022-08-22T01:37:10.269Z,3.00
2022-08-22T01:40:19.619Z,2.80
2022-08-22T01:43:06.341Z,2.40
2022-08-22T01:46:06.839Z,2.85
2022-08-22T01:48:42.968Z,2.83
2022-08-22T01:51:23.259Z,3.17
2022-08-22T01:54:02.092Z,2.67
2022-08-22T01:56:36.613Z,2.63
2022-08-22T01:59:10.981Z,3.42
2022-08-22T02:02:00.176Z,3.33
2022-08-22T02:04:38.967Z,2.95
2022-08-22T02:07:16.258Z,3.13
2022-08-22T02:09:54.473Z,3.17
2022-08-22T02:12:31.416Z,2.88
2022-08-22T02:15:14.452Z,2.80
2022-08-22T02:17:57.199Z,2.85
2022-08-22T02:20:35.400Z,3.17
2022-08-22T02:23:17.395Z,3.03
2022-08-22T02:25:53.863Z,3.13
2022-08-22T02:28:57.068Z,3.13
2022-08-22T02:31:39.518Z,2.92
2022-08-22T02:34:26.356Z,2.85
2022-08-22T02:37:04.078Z,2.78
2022-08-22T02:39:43.556Z,2.70
2022-08-22T02:42:22.891Z,3.30
2022-08-22T02:45:00.117Z,2.97
2022-08-22T02:47:38.123Z,2.97
2022-08-22T02:50:17.526Z,3.00
2022-08-22T02:52:57.671Z,3.50
2022-08-22T02:55:40.837Z,3.53
2022-08-22T02:58:17.541Z,3.30
2022-08-22T03:00:51.269Z,3.30
2022-08-22T03:03:25.292Z,3.42
2022-08-22T03:06:01.836Z,3.03
2022-08-22T03:08:34.202Z,3.90
2022-08-22T03:11:17.293Z,3.72
2022-08-22T03:13:56.164Z,3.55
2022-08-22T03:16:31.749Z,3.15
2022-08-22T03:19:13.099Z,2.92
2022-08-22T03:21:55.261Z,3.15
2022-08-22T03:24:31.797Z,3.58
2022-08-22T03:27:07.806Z,3.50
2022-08-22T03:29:41.093Z,3.70
2022-08-22T03:32:15.445Z,3.72
2022-08-22T03:34:59.750Z,4.25
2022-08-22T03:37:39.646Z,3.90
2022-08-22T03:40:22.751Z,4.13
2022-08-22T03:43:25.098Z,3.30
2022-08-22T03:46:35.872Z,3.60
2022-08-22T03:49:46.004Z,3.83
2022-08-22T03:52:59.251Z,3.20
2022-08-22T03:55:36.154Z,3.10
2022-08-22T03:58:32.583Z,3.28
2022-08-22T04:01:46.545Z,3.33
2022-08-22T04:04:52.493Z,3.40
2022-08-22T04:07:46.910Z,3.83
2022-08-22T04:10:34.080Z,3.60
2022-08-22T04:13:36.297Z,3.67
2022-08-22T04:16:41.577Z,3.58
2022-08-22T04:19:38.936Z,3.30
2022-08-22T04:22:22.100Z,3.97
2022-08-22T04:24:55.713Z,4.03
2022-08-22T04:27:29.248Z,4.93
2022-08-22T04:30:03.611Z,4.07
2022-08-22T04:32:38.697Z,5.50
2022-08-22T04:35:12.669Z,5.00
2022-08-22T04:37:48.364Z,4.32
2022-08-22T04:40:23.517Z,3.67
2022-08-22T04:42:58.630Z,4.20
2022-08-22T04:45:34.996Z,3.58
2022-08-22T04:48:11.085Z,3.60
2022-08-22T04:50:47.180Z,3.53
2022-08-22T04:53:28.932Z,3.22
2022-08-22T04:56:08.013Z,3.78
2022-08-22T04:58:47.125Z,3.88
2022-08-22T05:01:20.792Z,4.22
2022-08-22T05:06:27.019Z,3.67
2022-08-22T05:08:58.453Z,3.78
2022-08-22T05:11:28.162Z,4.22
2022-08-22T05:14:00.489Z,4.15
2022-08-22T05:16:33.604Z,3.50
2022-08-22T05:19:06.235Z,3.53
2022-08-22T05:21:38.931Z,4.25
2022-08-22T05:24:11.873Z,3.70
2022-08-22T05:26:44.851Z,3.90
2022-08-22T05:29:18.688Z,3.85
2022-08-22T05:31:53.422Z,3.88
2022-08-22T05:34:26.146Z,3.85
2022-08-22T05:36:58.502Z,3.97
2022-08-22T05:39:30.470Z,4.18
2022-08-22T05:42:01.988Z,3.67
2022-08-22T05:44:34.868Z,3.80
2022-08-22T05:47:13.789Z,4.30
2022-08-22T05:49:50.774Z,3.88
2022-08-22T05:52:29.848Z,4.10
2022-08-22T05:55:06.716Z,4.22
2022-08-22T05:57:40.284Z,3.70
2022-08-22T06:00:13.059Z,3.78
2022-08-22T06:02:55.547Z,3.80
2022-08-22T06:05:28.162Z,3.58
2022-08-22T06:08:02.842Z,3.55
2022-08-22T06:10:41.234Z,4.13
2022-08-22T06:13:16.592Z,3.83
2022-08-22T06:16:02.233Z,3.60
2022-08-22T06:18:34.858Z,3.70
2022-08-22T06:21:06.053Z,3.92
2022-08-22T06:23:38.798Z,3.13
2022-08-22T06:26:20.668Z,3.70
2022-08-22T06:28:55.452Z,3.95
2022-08-22T06:31:29.647Z,3.88
2022-08-22T06:34:06.252Z,4.07
2022-08-22T06:36:39.337Z,3.88
2022-08-22T06:39:19.985Z,3.83
2022-08-22T06:41:54.270Z,4.05
2022-08-22T06:44:25.590Z,4.00
2022-08-22T06:46:58.562Z,4.20
2022-08-22T06:49:31.265Z,3.95
2022-08-22T06:52:03.678Z,4.10
2022-08-22T06:54:36.697Z,4.03
2022-08-22T06:57:07.693Z,3.85
2022-08-22T06:59:40.388Z,4.68
2022-08-22T07:02:23.319Z,4.30
2022-08-22T07:04:53.976Z,4.40
2022-08-22T07:07:27.489Z,4.07
2022-08-22T07:09:57.826Z,4.03
2022-08-22T07:12:30.871Z,4.30
2022-08-22T07:15:13.126Z,3.75
2022-08-22T07:17:51.528Z,3.58
2022-08-22T07:20:29.768Z,3.47
2022-08-22T07:23:01.843Z,3.38
2022-08-22T07:25:31.932Z,2.97
2022-08-22T07:28:14.523Z,3.15
2022-08-22T07:30:56.003Z,3.55
2022-08-22T07:33:44.286Z,2.92
2022-08-22T07:36:32.019Z,2.67
2022-08-22T07:39:20.569Z,2.78
2022-08-22T07:42:02.181Z,3.17
2022-08-22T07:44:36.174Z,2.35
2022-08-22T07:47:09.859Z,2.97
2022-08-22T07:52:21.170Z,2.72
2022-08-22T07:54:56.413Z,2.40
2022-08-22T07:57:30.083Z,2.30
2022-08-22T08:02:28.721Z,2.47
2022-08-22T08:05:01.768Z,2.45
2022-08-22T08:07:32.438Z,2.67
2022-08-22T08:10:04.873Z,2.40
2022-08-22T08:12:37.042Z,2.05
2022-08-22T08:15:09.720Z,2.75
2022-08-22T08:17:41.366Z,2.03
2022-08-22T08:20:13.541Z,2.58
2022-08-22T08:22:48.177Z,1.92
2022-08-22T08:25:21.128Z,2.00
2022-08-22T08:28:09.898Z,1.92
2022-08-22T08:30:43.506Z,1.95
2022-08-22T08:33:26.321Z,2.03
2022-08-22T08:36:02.390Z,2.10
2022-08-22T08:38:37.663Z,4.13
2022-08-22T08:41:46.417Z,2.55
2022-08-22T08:44:36.011Z,2.30
2022-08-22T08:47:23.046Z,1.65
2022-08-22T08:50:19.784Z,2.13
2022-08-22T08:53:04.534Z,1.80
2022-08-22T08:55:55.800Z,2.03
2022-08-22T08:58:38.097Z,1.73
2022-08-22T09:01:31.289Z,2.22
2022-08-22T09:04:35.528Z,1.80
2022-08-22T09:07:31.341Z,1.60
2022-08-22T09:10:19.618Z,1.65
2022-08-22T09:13:12.972Z,2.35
2022-08-22T09:16:10.095Z,1.58
2022-08-22T09:19:07.045Z,2.03
2022-08-22T09:22:05.656Z,1.73
2022-08-22T09:25:23.915Z,1.55
2022-08-22T09:31:57.075Z,1.77
2022-08-22T09:34:36.105Z,1.80
2022-08-22T09:37:17.996Z,1.90
2022-08-22T09:39:57.370Z,1.67
2022-08-22T09:42:37.205Z,2.15
2022-08-22T09:45:34.735Z,2.47
2022-08-22T09:48:13.187Z,6.05
2022-08-22T09:50:54.565Z,2.00
2022-08-22T09:53:45.905Z,1.60
2022-08-22T09:56:26.064Z,1.80
2022-08-22T09:59:02.359Z,2.67
2022-08-22T10:01:34.857Z,1.63
2022-08-22T10:04:44.885Z,1.88
2022-08-22T10:07:34.118Z,1.90
2022-08-22T10:10:14.784Z,1.80
2022-08-22T10:12:53.323Z,1.80
2022-08-22T10:15:31.171Z,1.70
2022-08-22T10:18:13.126Z,1.63
2022-08-22T10:21:05.343Z,1.60
2022-08-22T10:23:40.972Z,1.50
2022-08-22T10:26:25.624Z,1.80
2022-08-22T10:29:00.459Z,1.77
2022-08-22T10:31:55.548Z,1.60
2022-08-22T10:34:36.990Z,1.83
2022-08-22T10:37:23.916Z,1.70
2022-08-22T10:40:03.272Z,1.38
2022-08-22T10:42:36.553Z,1.60
2022-08-22T10:45:32.107Z,1.55
2022-08-22T10:48:36.974Z,3.03
2022-08-22T10:51:35.376Z,3.53
2022-08-22T10:54:37.084Z,2.10
2022-08-22T10:57:26.738Z,1.55
2022-08-22T11:00:04.303Z,1.42
2022-08-22T11:02:42.233Z,1.30
2022-08-22T11:05:28.917Z,1.45
2022-08-22T11:08:08.272Z,1.23
2022-08-22T11:10:56.044Z,1.35
2022-08-22T11:13:31.955Z,1.33
2022-08-22T11:16:06.509Z,1.30
2022-08-22T11:19:15.564Z,1.20
2022-08-22T11:22:01.824Z,1.38
2022-08-22T11:25:14.169Z,1.95
2022-08-22T11:28:00.464Z,1.42
2022-08-22T11:30:36.480Z,1.30
2022-08-22T11:33:46.139Z,1.33
2022-08-22T11:36:31.153Z,1.92
2022-08-22T11:39:18.015Z,1.70
2022-08-22T11:41:56.837Z,1.23
2022-08-22T11:44:50.532Z,1.90
2022-08-22T11:47:27.100Z,1.80
2022-08-22T11:50:01.769Z,1.52
2022-08-22T11:52:59.253Z,1.60
2022-08-22T11:55:35.300Z,1.45
2022-08-22T11:58:28.971Z,1.25
2022-08-22T12:01:05.083Z,1.30
2022-08-22T12:03:59.830Z,1.73
2022-08-22T12:06:56.465Z,1.25
2022-08-22T12:09:40.053Z,1.40
2022-08-22T12:12:33.250Z,1.30
2022-08-22T12:15:14.119Z,1.85
2022-08-22T12:18:19.930Z,6.45
2022-08-22T12:21:17.244Z,2.40
2022-08-22T12:24:11.291Z,3.15
2022-08-22T12:27:06.531Z,2.45
2022-08-22T12:29:45.286Z,2.00
2022-08-22T12:32:45.739Z,1.52
2022-08-22T12:35:30.605Z,1.40
2022-08-22T12:38:29.142Z,2.03
2022-08-22T12:41:35.051Z,2.25
2022-08-22T12:44:20.350Z,2.15
2022-08-22T12:47:07.457Z,1.90
2022-08-22T12:49:52.535Z,1.55
2022-08-22T12:52:38.555Z,1.90
2022-08-22T12:55:39.860Z,1.65
2022-08-22T12:58:23.310Z,1.85
2022-08-22T13:00:52.910Z,1.52
2022-08-22T13:03:26.430Z,1.90
2022-08-22T13:08:34.541Z,1.30
2022-08-22T13:11:09.986Z,1.52
2022-08-22T13:13:56.176Z,1.90
2022-08-22T13:16:36.604Z,2.13
2022-08-22T13:19:13.574Z,1.60
2022-08-22T13:21:49.106Z,1.52
2022-08-22T13:24:38.737Z,1.50
2022-08-22T13:27:12.860Z,1.15
2022-08-22T13:29:50.306Z,1.38
2022-08-22T13:32:27.745Z,1.50
2022-08-22T13:34:58.682Z,1.42
2022-08-22T13:37:37.486Z,1.90
2022-08-22T13:40:33.770Z,1.80
2022-08-22T13:43:09.230Z,1.30
2022-08-22T13:45:39.741Z,1.70
2022-08-22T13:48:12.769Z,1.52
2022-08-22T13:51:02.178Z,1.20
2022-08-22T13:53:41.583Z,1.88
2022-08-22T13:56:20.963Z,1.38
2022-08-22T13:58:52.764Z,1.30
2022-08-22T14:01:37.970Z,1.40
2022-08-22T14:04:28.617Z,1.45
2022-08-22T14:07:25.509Z,1.70
2022-08-22T14:09:58.023Z,1.55
2022-08-22T14:12:33.395Z,1.60
2022-08-22T14:15:23.570Z,1.77
2022-08-22T14:20:32.104Z,1.45
2022-08-22T14:23:04.838Z,2.15
2022-08-22T14:25:39.074Z,2.03
2022-08-22T14:28:22.338Z,2.33
2022-08-22T14:31:03.925Z,2.10
2022-08-22T14:33:40.901Z,1.85
2022-08-22T14:36:17.746Z,2.15
2022-08-22T14:38:51.841Z,1.55
2022-08-22T14:41:56.256Z,1.52
2022-08-22T14:44:26.801Z,1.40
2022-08-22T14:46:59.266Z,1.50
2022-08-22T14:49:38.266Z,1.50
2022-08-22T14:52:19.521Z,1.40
2022-08-22T14:54:50.938Z,1.63
2022-08-22T14:57:21.254Z,2.03
2022-08-22T14:59:54.081Z,1.70
2022-08-22T15:02:29.497Z,1.85
2022-08-22T15:05:02.389Z,1.83
2022-08-22T15:07:37.454Z,2.00
2022-08-22T15:10:11.970Z,1.65
2022-08-22T15:12:46.744Z,2.20
2022-08-22T15:15:29.634Z,1.63
2022-08-22T15:17:58.792Z,1.70
2022-08-22T15:20:36.193Z,2.33
2022-08-22T15:23:10.147Z,2.03
2022-08-22T15:25:41.880Z,1.98
2022-08-22T15:28:20.806Z,1.85
2022-08-22T15:31:03.586Z,3.45
2022-08-22T15:33:35.718Z,2.50
2022-08-22T15:36:15.887Z,1.60
2022-08-22T15:38:48.196Z,1.85
2022-08-22T15:41:40.349Z,1.90
2022-08-22T15:44:33.130Z,2.00
2022-08-22T15:47:11.949Z,1.88
2022-08-22T15:49:56.333Z,1.48
2022-08-22T15:52:28.893Z,1.55
2022-08-22T15:55:23.867Z,1.40
2022-08-22T15:58:02.552Z,1.50
2022-08-22T16:00:36.068Z,1.77
2022-08-22T16:03:25.217Z,1.38
2022-08-22T16:05:57.246Z,1.70
2022-08-22T16:08:33.315Z,1.73
2022-08-22T16:11:29.568Z,1.40
2022-08-22T16:14:23.676Z,1.40
2022-08-22T16:17:00.992Z,1.35
2022-08-22T16:19:32.457Z,1.67
2022-08-22T16:22:15.431Z,1.52
2022-08-22T16:25:10.141Z,1.25
2022-08-22T16:27:54.601Z,1.40
2022-08-22T16:30:35.149Z,1.70
2022-08-22T16:33:04.707Z,1.90
2022-08-22T16:36:26.376Z,1.30
2022-08-22T16:38:58.957Z,1.80
2022-08-22T16:41:34.064Z,3.17
2022-08-22T16:44:39.331Z,2.33
2022-08-22T16:47:17.323Z,1.85
2022-08-22T16:50:01.127Z,2.25
2022-08-22T16:55:47.183Z,1.50
2022-08-22T16:58:44.996Z,1.55
2022-08-22T17:01:32.643Z,1.85
2022-08-22T17:04:10.529Z,1.55
2022-08-22T17:06:57.537Z,1.33
2022-08-22T17:09:46.922Z,1.50
2022-08-22T17:12:32.848Z,1.55
2022-08-22T17:15:18.644Z,1.52
2022-08-22T17:17:59.582Z,1.60
2022-08-22T17:20:47.536Z,1.58
2022-08-22T17:23:26.516Z,5.65
2022-08-22T17:26:03.181Z,2.75
2022-08-22T17:28:42.485Z,2.33
2022-08-22T17:31:18.795Z,1.60
2022-08-22T17:34:05.684Z,1.40
2022-08-22T17:37:03.049Z,1.67
2022-08-22T17:47:51.201Z,1.23
2022-08-22T17:50:24.275Z,1.85
2022-08-22T17:52:58.838Z,1.83
2022-08-22T17:55:31.684Z,1.52
2022-08-22T17:58:07.926Z,1.58
2022-08-22T18:00:40.618Z,1.52
2022-08-22T18:03:16.982Z,1.67
2022-08-22T18:05:52.857Z,1.80
2022-08-22T18:09:33.390Z,1.80
2022-08-22T18:11:30.240Z,1.52
2022-08-22T18:14:11.492Z,3.28
2022-08-22T18:16:52.301Z,2.08
2022-08-22T18:19:37.892Z,2.00
2022-08-22T18:22:11.885Z,1.60
2022-08-22T18:24:47.657Z,1.83
2022-08-22T18:27:34.403Z,1.73
2022-08-22T18:30:15.927Z,1.50
2022-08-22T18:32:54.761Z,1.67
2022-08-22T18:35:30.257Z,2.03
2022-08-22T18:38:19.682Z,1.63
2022-08-22T18:40:55.725Z,2.10
2022-08-22T18:43:36.897Z,2.10
2022-08-22T18:46:42.814Z,1.98
2022-08-22T18:49:28.555Z,1.95
2022-08-22T18:52:14.842Z,2.28
2022-08-22T18:55:04.419Z,1.90
2022-08-22T18:57:51.030Z,2.05
2022-08-22T19:00:22.194Z,2.13
2022-08-22T19:03:24.175Z,1.90
2022-08-22T19:09:58.648Z,1.70
2022-08-22T19:12:46.404Z,1.67
2022-08-22T19:15:28.945Z,2.72
2022-08-22T19:18:15.806Z,3.13
2022-08-22T19:21:02.051Z,2.88
2022-08-22T19:23:49.386Z,3.17
2022-08-22T19:26:38.431Z,2.10
2022-08-22T19:29:29.885Z,1.77
2022-08-22T19:32:00.886Z,2.30
2022-08-22T19:34:39.438Z,1.88
2022-08-22T19:37:33.106Z,2.00
2022-08-22T19:40:05.613Z,1.80
2022-08-22T19:42:40.621Z,1.90
2022-08-22T19:45:26.046Z,1.80
2022-08-22T19:47:59.648Z,2.08
2022-08-22T19:53:24.553Z,1.98
2022-08-22T19:56:08.625Z,1.90
2022-08-22T19:58:55.761Z,2.10
2022-08-22T20:01:44.536Z,1.98
2022-08-22T20:04:36.995Z,2.17
2022-08-22T20:07:15.401Z,2.08
2022-08-22T20:09:54.553Z,2.22
2022-08-22T20:12:32.301Z,2.03
2022-08-22T20:15:18.476Z,2.10
2022-08-22T20:18:11.642Z,2.25
2022-08-22T20:20:54.190Z,1.92
2022-08-22T20:23:29.528Z,2.53
2022-08-22T20:25:59.356Z,1.88
2022-08-22T20:28:40.775Z,2.20
2022-08-22T20:31:22.496Z,2.00
2022-08-22T20:33:57.047Z,2.50
2022-08-22T20:36:28.692Z,2.20
2022-08-22T20:39:03.451Z,2.38
2022-08-22T20:41:37.232Z,2.28
2022-08-22T20:44:16.083Z,2.03
2022-08-22T20:46:55.684Z,2.22
2022-08-22T20:49:29.750Z,2.30
2022-08-22T20:52:01.005Z,2.00
2022-08-22T20:54:31.197Z,2.38
2022-08-22T20:57:02.661Z,2.00
2022-08-22T20:59:37.301Z,1.67
2022-08-22T21:02:15.175Z,2.00
2022-08-22T21:04:53.129Z,2.00
2022-08-22T21:07:27.900Z,2.15
2022-08-22T21:10:22.537Z,2.03
2022-08-22T21:13:10.853Z,2.40
2022-08-22T21:15:42.427Z,2.20
2022-08-22T21:18:13.869Z,2.33
2022-08-22T21:20:42.889Z,2.10
2022-08-22T21:23:21.469Z,1.80
2022-08-22T21:25:57.180Z,2.20
2022-08-22T21:28:35.733Z,1.88
2022-08-22T21:31:12.957Z,2.05
2022-08-22T21:33:48.827Z,2.03
2022-08-22T21:36:19.398Z,2.13
2022-08-22T21:38:51.517Z,2.20
2022-08-22T21:41:31.984Z,1.90
2022-08-22T21:44:26.617Z,1.98
2022-08-22T21:46:55.557Z,11.40
2022-08-22T21:49:27.830Z,2.13
2022-08-22T21:51:56.544Z,3.50
2022-08-22T21:54:43.660Z,2.20
2022-08-22T21:57:35.252Z,2.50
2022-08-22T22:00:11.428Z,2.10
2022-08-22T22:02:42.253Z,1.83
2022-08-22T22:05:17.827Z,2.00
2022-08-22T22:07:48.034Z,2.20
2022-08-22T22:10:19.118Z,2.30
2022-08-22T22:12:49.013Z,2.28
2022-08-22T22:15:21.973Z,2.40
2022-08-22T22:17:50.944Z,2.38
2022-08-22T22:20:23.463Z,2.40
2022-08-22T22:22:52.352Z,2.40
2022-08-22T22:25:39.541Z,2.30
2022-08-22T22:28:16.780Z,2.30
2022-08-22T22:30:50.604Z,2.50
2022-08-22T22:33:20.021Z,2.25
2022-08-22T22:35:52.083Z,2.50
2022-08-22T22:38:24.090Z,1.95
2022-08-22T22:40:53.400Z,2.72
2022-08-22T22:43:21.946Z,2.17
2022-08-22T22:45:50.649Z,2.03
2022-08-22T22:48:24.343Z,1.67
2022-08-22T22:50:55.800Z,2.25
2022-08-22T22:53:33.736Z,2.17
2022-08-22T22:56:09.640Z,7.00
2022-08-22T22:58:38.537Z,3.63
2022-08-22T23:01:11.033Z,2.88
2022-08-22T23:03:39.639Z,2.05
2022-08-22T23:06:14.602Z,2.40
2022-08-22T23:08:43.477Z,2.63
2022-08-22T23:11:13.927Z,2.40
2022-08-22T23:13:43.267Z,2.10
2022-08-22T23:16:14.976Z,2.20
2022-08-22T23:18:46.061Z,2.08
2022-08-22T23:21:20.904Z,2.30
2022-08-22T23:23:50.385Z,2.35
2022-08-22T23:26:19.421Z,2.65
2022-08-22T23:28:47.985Z,2.10
2022-08-22T23:31:18.594Z,1.92
2022-08-22T23:33:47.635Z,2.40
2022-08-22T23:36:20.578Z,2.15
2022-08-22T23:38:51.754Z,1.92
2022-08-22T23:41:22.524Z,2.10
2022-08-22T23:43:55.709Z,2.30
2022-08-22T23:46:26.981Z,2.53
2022-08-22T23:48:55.789Z,2.03
2022-08-22T23:51:27.552Z,2.47
2022-08-22T23:53:59.040Z,2.20
2022-08-22T23:56:30.612Z,2.50
2022-08-22T23:59:00.703Z,2.13
